Terminal Aerodrome Forecast
Issued by NWS

Home | Current Version | Previous Version | Text Only | Print | Product List | Glossary On
Versions: 1 2 3 4 5 6 7 8 9 10 11 12 13 14 15 16 17 18 19 20 21 22 23 24 25 26 27 28 29 30 31 32 33 34 35 36 37 38 39 40 41 42 43 44 45 46 47 48 49 50
000
FTUS45 KGJT 040316 AAB
TAFRIL
TAF AMD
KRIL 040316Z 0403/0424 30010KT P6SM VCSH BKN035 OVC060
     FM040400 29010KT P6SM VCSH SCT035 BKN060
      TEMPO 0404/0405 3SM -SHSN BR SCT015 BKN030
     FM041200 VRB04KT P6SM FEW020 BKN060
     FM041900 30010KT P6SM SCT060=

USA.gov is the U.S. government's official web portal to all federal, state and local government web resources and services.